Time;durP1;ratioP1;P1;durP2;ratioP2;P2;SDS_P1;SDS_P2;PMS_P1;PMS_P2;Temp;Humidity;BMP_temperature;BMP_pressure;BME280_temperature;BME280_humidity;BME280_pressure;Samples;Min_cycle;Max_cycle;Signal;HPM_P1;HPM_P2
2021/09/08 00:00:16;;;;;;;2.25;1.67;;;;;;;;;;5010354;28;20514;-57
2021/09/08 00:02:41;;;;;;;3.20;1.38;;;;;;;;;;5011995;28;20753;-57
2021/09/08 00:05:07;;;;;;;4.68;2.53;;;;;;;;;;5015711;28;20025;-57
2021/09/08 00:07:33;;;;;;;3.03;2.45;;;;;;;;;;5017733;28;20014;-57
2021/09/08 00:09:58;;;;;;;7.07;2.35;;;;;;;;;;5014656;28;20025;-57
2021/09/08 00:12:24;;;;;;;3.67;2.85;;;;;;;;;;5014598;28;20022;-57
2021/09/08 00:14:49;;;;;;;3.85;3.05;;;;;;;;;;5009988;28;20018;-57
2021/09/08 00:17:14;;;;;;;5.18;2.33;;;;;;;;;;5013719;28;20654;-56
2021/09/08 00:19:40;;;;;;;4.57;3.20;;;;;;;;;;5014512;28;20024;-56
2021/09/08 00:22:05;;;;;;;4.07;2.33;;;;;;;;;;5014960;28;20034;-58
2021/09/08 00:24:30;;;;;;;2.92;2.60;;;;;;;;;;5014528;28;20064;-56
2021/09/08 00:26:56;;;;;;;7.10;2.22;;;;;;;;;;5019769;28;20037;-57
2021/09/08 00:29:21;;;;;;;9.77;2.75;;;;;;;;;;5007670;28;20055;-57
2021/09/08 00:31:46;;;;;;;9.48;1.80;;;;;;;;;;5016695;28;20165;-57
2021/09/08 00:34:12;;;;;;;5.25;2.75;;;;;;;;;;5015851;28;20414;-57
2021/09/08 00:36:38;;;;;;;4.85;2.38;;;;;;;;;;5014840;28;20036;-57
2021/09/08 00:39:03;;;;;;;5.50;2.00;;;;;;;;;;5019067;28;20671;-58
2021/09/08 00:41:29;;;;;;;2.88;2.00;;;;;;;;;;5018788;28;20068;-58
2021/09/08 00:43:55;;;;;;;3.22;2.75;;;;;;;;;;5023418;28;20022;-58
2021/09/08 00:46:20;;;;;;;3.70;2.63;;;;;;;;;;5017770;28;20101;-58
2021/09/08 00:48:45;;;;;;;2.55;1.90;;;;;;;;;;5023865;28;20638;-58
2021/09/08 00:51:11;;;;;;;7.25;2.78;;;;;;;;;;5011291;28;20149;-57
2021/09/08 00:53:38;;;;;;;3.78;1.83;;;;;;;;;;5018435;28;20025;-57
2021/09/08 00:56:04;;;;;;;4.15;2.45;;;;;;;;;;5020814;28;20021;-57
2021/09/08 00:58:30;;;;;;;1.92;1.70;;;;;;;;;;5018641;28;20374;-56
2021/09/08 01:00:56;;;;;;;2.58;1.77;;;;;;;;;;5021724;28;20026;-57
2021/09/08 01:03:21;;;;;;;3.60;2.05;;;;;;;;;;5019890;28;20037;-57
2021/09/08 01:05:47;;;;;;;2.22;1.55;;;;;;;;;;5025065;28;20025;-57
2021/09/08 01:08:12;;;;;;;3.88;2.45;;;;;;;;;;5022391;28;20116;-56
2021/09/08 01:10:38;;;;;;;2.53;2.22;;;;;;;;;;5019686;28;20100;-57
2021/09/08 01:13:06;;;;;;;3.35;1.90;;;;;;;;;;5012037;28;20023;-57
2021/09/08 01:15:31;;;;;;;4.88;2.35;;;;;;;;;;5016041;28;20018;-57
2021/09/08 01:17:57;;;;;;;2.70;2.17;;;;;;;;;;5020180;28;20474;-57
2021/09/08 01:20:22;;;;;;;3.78;2.35;;;;;;;;;;5018308;28;20035;-58
2021/09/08 01:22:52;;;;;;;3.17;2.63;;;;;;;;;;5021349;28;20400;-58
2021/09/08 01:25:20;;;;;;;3.95;2.20;;;;;;;;;;5020207;28;20032;-57
2021/09/08 01:27:46;;;;;;;3.47;1.90;;;;;;;;;;5019375;28;20511;-58
2021/09/08 01:30:14;;;;;;;2.38;1.98;;;;;;;;;;5014842;28;20034;-57
2021/09/08 01:32:39;;;;;;;3.25;2.40;;;;;;;;;;5017402;28;20057;-58
2021/09/08 01:35:05;;;;;;;3.40;2.60;;;;;;;;;;5021104;28;20076;-58
2021/09/08 01:37:30;;;;;;;3.80;2.15;;;;;;;;;;5021638;28;20021;-56
2021/09/08 01:39:56;;;;;;;2.03;1.80;;;;;;;;;;5014459;28;20475;-56
2021/09/08 01:42:21;;;;;;;4.43;2.65;;;;;;;;;;5018742;28;20029;-57
2021/09/08 01:44:46;;;;;;;2.55;2.00;;;;;;;;;;5021464;28;20030;-56
2021/09/08 01:47:11;;;;;;;3.13;2.22;;;;;;;;;;5017350;28;20101;-56
2021/09/08 01:49:37;;;;;;;6.95;3.05;;;;;;;;;;5021327;28;20070;-57
2021/09/08 01:52:02;;;;;;;3.42;2.67;;;;;;;;;;5015034;28;20017;-57
2021/09/08 01:54:28;;;;;;;11.68;3.78;;;;;;;;;;5014742;28;20072;-57
2021/09/08 01:56:53;;;;;;;3.10;2.22;;;;;;;;;;5017236;28;20484;-57
2021/09/08 01:59:18;;;;;;;7.85;2.33;;;;;;;;;;5015183;28;20027;-57
2021/09/08 02:01:43;;;;;;;3.50;2.42;;;;;;;;;;5010744;28;20026;-57
2021/09/08 02:04:09;;;;;;;3.08;2.25;;;;;;;;;;5013440;28;20048;-57
2021/09/08 02:06:34;;;;;;;2.75;1.98;;;;;;;;;;5019875;28;20044;-57
2021/09/08 02:09:00;;;;;;;2.83;2.13;;;;;;;;;;5018497;28;20060;-57
2021/09/08 02:11:26;;;;;;;5.13;2.00;;;;;;;;;;5022625;28;20018;-57
2021/09/08 02:13:51;;;;;;;4.15;2.80;;;;;;;;;;5023570;28;20026;-57
2021/09/08 02:16:20;;;;;;;5.20;2.55;;;;;;;;;;5017189;28;20188;-57
2021/09/08 02:18:45;;;;;;;2.85;2.22;;;;;;;;;;5017516;28;20108;-57
2021/09/08 02:21:11;;;;;;;2.63;2.03;;;;;;;;;;5018099;28;20043;-57
2021/09/08 02:23:36;;;;;;;3.72;2.40;;;;;;;;;;5010451;28;20037;-57
2021/09/08 02:26:01;;;;;;;4.00;2.13;;;;;;;;;;5006469;28;20017;-57
2021/09/08 02:28:27;;;;;;;3.53;2.15;;;;;;;;;;5018348;28;20083;-57
2021/09/08 02:30:52;;;;;;;3.90;2.55;;;;;;;;;;5020600;28;20025;-57
2021/09/08 02:33:18;;;;;;;2.78;2.22;;;;;;;;;;5016364;28;20437;-55
2021/09/08 02:35:43;;;;;;;3.38;2.38;;;;;;;;;;5019310;28;20088;-54
2021/09/08 02:38:09;;;;;;;2.47;1.65;;;;;;;;;;5020345;28;20381;-56
2021/09/08 02:40:34;;;;;;;4.47;2.60;;;;;;;;;;5015583;28;20385;-57
2021/09/08 02:42:59;;;;;;;3.83;2.30;;;;;;;;;;5016569;28;20428;-57
2021/09/08 02:45:25;;;;;;;3.95;3.22;;;;;;;;;;5012941;28;20014;-57
2021/09/08 02:47:50;;;;;;;6.65;2.42;;;;;;;;;;5009869;28;20475;-57
2021/09/08 02:50:15;;;;;;;3.75;1.75;;;;;;;;;;5015095;28;20026;-57
2021/09/08 02:52:40;;;;;;;2.72;2.03;;;;;;;;;;5019468;28;20100;-56
2021/09/08 02:55:06;;;;;;;1.90;1.70;;;;;;;;;;5012643;28;20029;-57
2021/09/08 02:57:31;;;;;;;2.50;1.67;;;;;;;;;;5011140;28;20469;-57
2021/09/08 02:59:57;;;;;;;2.45;2.05;;;;;;;;;;5018037;28;20112;-57
2021/09/08 03:02:22;;;;;;;6.32;2.03;;;;;;;;;;5014864;28;20456;-57
2021/09/08 03:04:47;;;;;;;6.43;2.17;;;;;;;;;;5017813;28;20037;-57
2021/09/08 03:07:12;;;;;;;3.72;2.63;;;;;;;;;;5019763;28;20014;-57
2021/09/08 03:09:38;;;;;;;5.00;2.20;;;;;;;;;;5022131;28;20025;-57
2021/09/08 03:12:03;;;;;;;3.42;2.70;;;;;;;;;;5018470;28;20420;-56
2021/09/08 03:14:29;;;;;;;2.95;1.95;;;;;;;;;;5019619;28;20009;-56
2021/09/08 03:16:54;;;;;;;3.95;2.65;;;;;;;;;;5018690;28;20068;-57
2021/09/08 03:19:19;;;;;;;5.03;2.03;;;;;;;;;;5017884;28;20033;-57
2021/09/08 03:21:44;;;;;;;12.88;3.38;;;;;;;;;;5014877;28;20531;-57
2021/09/08 03:24:10;;;;;;;4.38;2.45;;;;;;;;;;5021431;28;20634;-58
2021/09/08 03:26:35;;;;;;;8.57;2.45;;;;;;;;;;5013782;28;20028;-57
2021/09/08 03:29:00;;;;;;;2.03;1.75;;;;;;;;;;5016201;28;20025;-56
2021/09/08 03:31:26;;;;;;;4.32;2.72;;;;;;;;;;5020956;28;20026;-56
2021/09/08 03:33:51;;;;;;;3.33;2.60;;;;;;;;;;5016769;28;20104;-57
2021/09/08 03:36:16;;;;;;;2.33;1.88;;;;;;;;;;5015360;28;20061;-59
2021/09/08 03:38:41;;;;;;;6.45;2.60;;;;;;;;;;5015006;28;20571;-58
2021/09/08 03:41:07;;;;;;;3.92;2.80;;;;;;;;;;5015657;28;20025;-57
2021/09/08 03:43:32;;;;;;;3.97;2.33;;;;;;;;;;5016848;28;20032;-57
2021/09/08 03:45:58;;;;;;;3.75;2.70;;;;;;;;;;5019215;28;20020;-56
2021/09/08 03:48:23;;;;;;;4.97;3.03;;;;;;;;;;5016697;28;20025;-57
2021/09/08 03:50:49;;;;;;;5.78;2.90;;;;;;;;;;5018535;28;20031;-61
2021/09/08 03:53:14;;;;;;;3.97;2.70;;;;;;;;;;5010968;28;20015;-57
2021/09/08 03:55:39;;;;;;;2.70;1.98;;;;;;;;;;5020117;28;20535;-57
2021/09/08 03:58:05;;;;;;;2.65;1.80;;;;;;;;;;5016159;28;20057;-57
2021/09/08 04:00:30;;;;;;;6.30;2.90;;;;;;;;;;5015378;28;20410;-57
2021/09/08 04:02:55;;;;;;;4.13;2.53;;;;;;;;;;5019163;28;20793;-57
2021/09/08 04:05:21;;;;;;;2.67;2.28;;;;;;;;;;5010537;28;20518;-57
2021/09/08 04:07:46;;;;;;;2.85;1.65;;;;;;;;;;5017951;28;20076;-57
2021/09/08 04:10:11;;;;;;;2.58;2.15;;;;;;;;;;5013268;28;20059;-57
2021/09/08 04:12:36;;;;;;;4.20;2.90;;;;;;;;;;5020677;28;20026;-57
2021/09/08 04:15:02;;;;;;;4.95;2.08;;;;;;;;;;5017429;28;20038;-57
2021/09/08 04:17:27;;;;;;;3.17;2.35;;;;;;;;;;5023469;28;20389;-57
2021/09/08 04:19:53;;;;;;;4.93;2.78;;;;;;;;;;5017852;28;20068;-57
2021/09/08 04:22:18;;;;;;;4.25;2.45;;;;;;;;;;5015254;28;20490;-57
2021/09/08 04:24:44;;;;;;;3.10;2.28;;;;;;;;;;5012390;28;20033;-57
2021/09/08 04:27:10;;;;;;;4.68;2.15;;;;;;;;;;5011447;28;20500;-57
2021/09/08 04:29:35;;;;;;;4.05;2.58;;;;;;;;;;5007053;28;20021;-57
2021/09/08 04:32:00;;;;;;;2.10;1.38;;;;;;;;;;5010901;28;20489;-57
2021/09/08 04:34:26;;;;;;;4.07;3.60;;;;;;;;;;5017749;28;20494;-57
2021/09/08 04:36:51;;;;;;;2.95;2.10;;;;;;;;;;5018458;28;20031;-56
2021/09/08 04:39:16;;;;;;;4.10;2.40;;;;;;;;;;5022161;28;20036;-57
2021/09/08 04:41:42;;;;;;;8.38;2.67;;;;;;;;;;5018110;28;20579;-56
2021/09/08 04:44:07;;;;;;;4.97;2.92;;;;;;;;;;5017589;28;20569;-57
2021/09/08 04:46:32;;;;;;;5.30;3.67;;;;;;;;;;5016116;28;20018;-55
2021/09/08 04:48:58;;;;;;;5.28;3.63;;;;;;;;;;5015792;28;20921;-49
2021/09/08 04:51:23;;;;;;;6.40;3.35;;;;;;;;;;5009695;28;20032;-52
2021/09/08 04:53:49;;;;;;;4.30;3.35;;;;;;;;;;5013943;28;20052;-48
2021/09/08 04:56:14;;;;;;;16.95;3.90;;;;;;;;;;5018120;28;20026;-50
2021/09/08 04:58:39;;;;;;;4.22;3.40;;;;;;;;;;5013551;28;20486;-50
2021/09/08 05:01:05;;;;;;;7.07;2.90;;;;;;;;;;5017839;28;20092;-48
2021/09/08 05:03:31;;;;;;;5.53;3.75;;;;;;;;;;5016660;28;20064;-47
2021/09/08 05:05:56;;;;;;;4.78;2.60;;;;;;;;;;5017970;28;20049;-49
2021/09/08 05:08:22;;;;;;;3.88;3.22;;;;;;;;;;5019594;28;20026;-49
2021/09/08 05:10:47;;;;;;;3.05;2.50;;;;;;;;;;5014031;28;20022;-48
2021/09/08 05:13:12;;;;;;;3.50;3.00;;;;;;;;;;5014745;28;20476;-50
2021/09/08 05:15:38;;;;;;;10.13;2.30;;;;;;;;;;5018910;28;20026;-51
2021/09/08 05:18:03;;;;;;;4.60;2.92;;;;;;;;;;5015531;28;20033;-47
2021/09/08 05:20:28;;;;;;;4.05;2.85;;;;;;;;;;5015355;28;20159;-51
2021/09/08 05:22:54;;;;;;;5.57;2.88;;;;;;;;;;5017141;28;20113;-48
2021/09/08 05:25:19;;;;;;;4.70;3.10;;;;;;;;;;5019491;28;20037;-48
2021/09/08 05:27:44;;;;;;;6.78;3.75;;;;;;;;;;5018152;28;20450;-46
2021/09/08 05:30:10;;;;;;;3.83;3.13;;;;;;;;;;5020309;28;20017;-49
2021/09/08 05:32:35;;;;;;;6.88;3.50;;;;;;;;;;5019302;28;20100;-48
2021/09/08 05:35:00;;;;;;;4.45;3.75;;;;;;;;;;5019119;28;20401;-50
2021/09/08 05:37:25;;;;;;;4.75;2.65;;;;;;;;;;5023462;28;20504;-47
2021/09/08 05:39:51;;;;;;;10.75;2.88;;;;;;;;;;5017844;28;20025;-48
2021/09/08 05:42:16;;;;;;;3.42;2.80;;;;;;;;;;5015276;28;20040;-49
2021/09/08 05:44:42;;;;;;;6.28;3.42;;;;;;;;;;5016226;28;20034;-50
2021/09/08 05:47:07;;;;;;;11.57;2.67;;;;;;;;;;5021553;28;20021;-50
2021/09/08 05:49:32;;;;;;;3.45;2.78;;;;;;;;;;5023321;28;20049;-48
2021/09/08 05:51:58;;;;;;;7.20;3.42;;;;;;;;;;5020861;28;20651;-55
2021/09/08 05:54:24;;;;;;;4.88;3.10;;;;;;;;;;5019181;28;20021;-48
2021/09/08 05:56:49;;;;;;;4.32;3.92;;;;;;;;;;5015151;28;20493;-47
2021/09/08 05:59:14;;;;;;;4.93;2.97;;;;;;;;;;5015301;28;20076;-51
2021/09/08 06:01:39;;;;;;;4.85;3.00;;;;;;;;;;5015751;28;20025;-47
2021/09/08 06:04:05;;;;;;;15.93;3.63;;;;;;;;;;5019318;28;20461;-50
2021/09/08 06:06:30;;;;;;;3.08;2.70;;;;;;;;;;5015858;28;20017;-50
2021/09/08 06:08:55;;;;;;;4.80;3.08;;;;;;;;;;5021396;28;20023;-48
2021/09/08 06:11:21;;;;;;;6.50;3.65;;;;;;;;;;5019846;28;20030;-48
2021/09/08 06:13:46;;;;;;;4.10;2.92;;;;;;;;;;5014740;28;20361;-46
2021/09/08 06:16:11;;;;;;;5.03;3.28;;;;;;;;;;5021917;28;20462;-47
2021/09/08 06:18:37;;;;;;;7.82;3.42;;;;;;;;;;5017110;28;20436;-48
2021/09/08 06:21:02;;;;;;;7.15;3.67;;;;;;;;;;5018124;28;20061;-48
2021/09/08 06:23:28;;;;;;;7.35;3.72;;;;;;;;;;5013161;28;20032;-51
2021/09/08 06:25:53;;;;;;;11.07;3.53;;;;;;;;;;5019998;28;20452;-55
2021/09/08 06:28:18;;;;;;;6.15;4.43;;;;;;;;;;5014682;28;20056;-55
2021/09/08 06:30:44;;;;;;;6.90;5.55;;;;;;;;;;5013476;28;20021;-57
2021/09/08 06:33:09;;;;;;;11.65;6.72;;;;;;;;;;5016813;28;20021;-54
2021/09/08 06:35:34;;;;;;;14.82;7.30;;;;;;;;;;5018591;28;20037;-54
2021/09/08 06:38:00;;;;;;;19.38;10.18;;;;;;;;;;5008661;28;20022;-57
2021/09/08 06:40:25;;;;;;;10.00;5.57;;;;;;;;;;5011140;28;20025;-56
2021/09/08 06:42:50;;;;;;;18.38;6.38;;;;;;;;;;5016921;28;20393;-56
2021/09/08 06:45:17;;;;;;;9.57;6.90;;;;;;;;;;5016705;28;20125;-55
2021/09/08 06:47:42;;;;;;;15.25;6.28;;;;;;;;;;5017019;28;20056;-58
2021/09/08 06:50:08;;;;;;;17.38;6.00;;;;;;;;;;5015958;28;20048;-53
2021/09/08 06:52:33;;;;;;;34.00;8.07;;;;;;;;;;5009818;28;20030;-58
2021/09/08 06:54:58;;;;;;;11.80;9.05;;;;;;;;;;5021913;28;20052;-55
2021/09/08 06:57:24;;;;;;;12.32;7.15;;;;;;;;;;5018291;28;20128;-52
2021/09/08 06:59:49;;;;;;;11.50;7.10;;;;;;;;;;5013987;28;20489;-55
2021/09/08 07:02:14;;;;;;;17.63;12.57;;;;;;;;;;5012285;28;20033;-57
2021/09/08 07:04:40;;;;;;;12.88;9.00;;;;;;;;;;5015646;28;20045;-57
2021/09/08 07:07:05;;;;;;;17.60;10.70;;;;;;;;;;5013508;28;20029;-57
2021/09/08 07:09:31;;;;;;;17.75;15.90;;;;;;;;;;5009623;28;20022;-55
2021/09/08 07:11:56;;;;;;;35.00;17.55;;;;;;;;;;5009375;28;20096;-54
2021/09/08 07:14:21;;;;;;;22.30;11.38;;;;;;;;;;5012798;28;20436;-55
2021/09/08 07:16:47;;;;;;;36.72;26.38;;;;;;;;;;5019738;28;20026;-52
2021/09/08 07:19:12;;;;;;;27.73;18.67;;;;;;;;;;5022374;28;20516;-52
2021/09/08 07:21:38;;;;;;;34.55;17.33;;;;;;;;;;5016969;28;20034;-57
2021/09/08 07:24:03;;;;;;;18.05;14.30;;;;;;;;;;5014015;28;20022;-56
2021/09/08 07:26:34;;;;;;;16.90;12.93;;;;;;;;;;5012449;28;20017;-56
2021/09/08 07:29:00;;;;;;;15.68;13.82;;;;;;;;;;5011524;28;20045;-56
2021/09/08 07:31:25;;;;;;;12.88;10.27;;;;;;;;;;5015709;28;20021;-56
2021/09/08 07:33:50;;;;;;;12.55;9.70;;;;;;;;;;5016211;28;20056;-56
2021/09/08 07:36:16;;;;;;;25.25;11.25;;;;;;;;;;5015036;28;20466;-56
2021/09/08 07:38:41;;;;;;;15.25;13.75;;;;;;;;;;5014016;28;20033;-60
2021/09/08 07:41:06;;;;;;;16.58;14.73;;;;;;;;;;5019135;28;20121;-56
2021/09/08 07:43:32;;;;;;;10.38;9.38;;;;;;;;;;5018493;28;20638;-57
2021/09/08 07:45:57;;;;;;;15.45;8.85;;;;;;;;;;5014015;28;20114;-57
2021/09/08 07:48:23;;;;;;;19.50;9.18;;;;;;;;;;5013202;28;20028;-58
2021/09/08 07:50:48;;;;;;;22.13;10.68;;;;;;;;;;5014825;28;20014;-55
2021/09/08 07:53:14;;;;;;;12.90;7.15;;;;;;;;;;5014812;28;20021;-54
2021/09/08 07:55:39;;;;;;;8.05;6.00;;;;;;;;;;5009417;28;20026;-51
2021/09/08 07:58:04;;;;;;;2.35;1.45;;;;;;;;;;5013871;28;20763;-56
2021/09/08 08:00:32;;;;;;;5.75;4.63;;;;;;;;;;5018884;28;20384;-56
2021/09/08 08:02:57;;;;;;;3.63;1.92;;;;;;;;;;5019058;28;20058;-56
2021/09/08 08:05:22;;;;;;;9.52;3.63;;;;;;;;;;5018050;28;20491;-55
2021/09/08 08:07:48;;;;;;;3.38;1.88;;;;;;;;;;5013429;28;20174;-56
2021/09/08 08:10:14;;;;;;;6.93;2.05;;;;;;;;;;5012141;28;20485;-54
2021/09/08 08:12:40;;;;;;;3.22;1.58;;;;;;;;;;5013499;28;20025;-54
2021/09/08 08:15:06;;;;;;;5.57;2.67;;;;;;;;;;5019219;28;20034;-54
2021/09/08 08:17:31;;;;;;;4.82;2.53;;;;;;;;;;5016438;28;20044;-55
2021/09/08 08:19:56;;;;;;;9.38;1.38;;;;;;;;;;5017222;28;20038;-56
2021/09/08 08:22:22;;;;;;;4.43;2.13;;;;;;;;;;5013460;28;20033;-53
2021/09/08 08:24:48;;;;;;;6.85;2.17;;;;;;;;;;5017127;28;20448;-52
2021/09/08 08:27:13;;;;;;;2.38;1.52;;;;;;;;;;5016473;28;20521;-49
2021/09/08 08:29:38;;;;;;;2.17;1.40;;;;;;;;;;5017283;28;20020;-53
2021/09/08 08:32:04;;;;;;;3.83;1.48;;;;;;;;;;5015376;28;20478;-52
2021/09/08 08:34:29;;;;;;;4.22;2.05;;;;;;;;;;5015106;28;20053;-55
2021/09/08 08:36:55;;;;;;;2.95;1.85;;;;;;;;;;5014244;28;20068;-54
2021/09/08 08:39:20;;;;;;;2.42;1.35;;;;;;;;;;5015685;28;20029;-53
2021/09/08 08:41:45;;;;;;;2.38;1.33;;;;;;;;;;5015447;28;20033;-54
2021/09/08 08:44:11;;;;;;;2.35;1.42;;;;;;;;;;5011484;28;20030;-52
2021/09/08 08:46:36;;;;;;;3.28;1.58;;;;;;;;;;5012095;28;20374;-54
2021/09/08 08:49:02;;;;;;;5.07;1.10;;;;;;;;;;5013921;28;20033;-56
2021/09/08 08:51:27;;;;;;;2.53;1.30;;;;;;;;;;5018171;28;20389;-55
2021/09/08 08:53:53;;;;;;;2.03;1.33;;;;;;;;;;5021238;28;20080;-55
2021/09/08 08:56:18;;;;;;;2.38;1.52;;;;;;;;;;5017054;28;20044;-56
2021/09/08 08:58:43;;;;;;;2.55;1.25;;;;;;;;;;5014031;28;20394;-54
2021/09/08 09:01:15;;;;;;;1.30;0.95;;;;;;;;;;5014915;28;20031;-49
2021/09/08 09:03:40;;;;;;;2.08;1.17;;;;;;;;;;5010964;28;20046;-55
2021/09/08 09:06:05;;;;;;;7.13;1.65;;;;;;;;;;5010139;28;20076;-55
2021/09/08 09:08:33;;;;;;;1.25;1.00;;;;;;;;;;5014311;28;20052;-55
2021/09/08 09:10:58;;;;;;;1.67;1.08;;;;;;;;;;5019079;28;20429;-55
2021/09/08 09:13:30;;;;;;;3.35;1.63;;;;;;;;;;5023832;28;20041;-54
2021/09/08 09:16:04;;;;;;;6.32;1.40;;;;;;;;;;5017811;28;20021;-56
2021/09/08 09:18:36;;;;;;;4.13;2.30;;;;;;;;;;5021213;28;20025;-49
2021/09/08 09:21:06;;;;;;;4.30;2.45;;;;;;;;;;5021018;28;20045;-52
2021/09/08 09:23:40;;;;;;;2.17;1.40;;;;;;;;;;5015667;28;20399;-53
2021/09/08 09:26:05;;;;;;;3.00;1.70;;;;;;;;;;5016458;28;20053;-53
2021/09/08 09:28:30;;;;;;;3.70;1.92;;;;;;;;;;5011474;28;20068;-51
2021/09/08 09:30:56;;;;;;;1.60;0.93;;;;;;;;;;5010601;28;20022;-56
2021/09/08 09:33:30;;;;;;;2.08;1.35;;;;;;;;;;5017030;28;20046;-52
2021/09/08 09:35:56;;;;;;;7.22;2.25;;;;;;;;;;5016334;28;20489;-50
2021/09/08 09:38:21;;;;;;;7.45;2.15;;;;;;;;;;5020157;28;20040;-51
2021/09/08 09:40:49;;;;;;;3.90;1.63;;;;;;;;;;5021601;28;20029;-50
2021/09/08 09:43:14;;;;;;;3.00;1.55;;;;;;;;;;5021044;28;20037;-51
2021/09/08 09:45:40;;;;;;;2.42;1.55;;;;;;;;;;5017848;28;20084;-50
2021/09/08 09:48:07;;;;;;;2.70;1.58;;;;;;;;;;5019518;28;20025;-53
2021/09/08 09:50:33;;;;;;;9.57;1.83;;;;;;;;;;5016606;28;20022;-48
2021/09/08 09:52:59;;;;;;;2.92;2.13;;;;;;;;;;5019719;28;20014;-50
2021/09/08 09:55:25;;;;;;;5.05;2.15;;;;;;;;;;5021351;28;20104;-49
2021/09/08 09:57:51;;;;;;;2.33;1.60;;;;;;;;;;5016677;28;20087;-52
2021/09/08 10:00:17;;;;;;;4.63;2.88;;;;;;;;;;5020179;28;20477;-51
2021/09/08 10:02:43;;;;;;;3.78;1.85;;;;;;;;;;5022323;28;20099;-50
2021/09/08 10:05:09;;;;;;;5.68;2.67;;;;;;;;;;5025471;28;20144;-51
2021/09/08 10:07:35;;;;;;;3.33;1.80;;;;;;;;;;5023862;28;20597;-52
2021/09/08 10:10:04;;;;;;;3.53;1.88;;;;;;;;;;5022804;28;20022;-49
2021/09/08 10:12:32;;;;;;;2.90;1.67;;;;;;;;;;5014038;28;20053;-48
2021/09/08 10:14:58;;;;;;;2.47;2.00;;;;;;;;;;5004817;28;20039;-52
2021/09/08 10:17:24;;;;;;;2.95;1.83;;;;;;;;;;5004237;28;20029;-48
2021/09/08 10:20:00;;;;;;;2.63;1.65;;;;;;;;;;5018968;28;20025;-49
2021/09/08 10:22:26;;;;;;;7.07;1.75;;;;;;;;;;5019820;28;20017;-50
2021/09/08 10:24:52;;;;;;;2.25;1.83;;;;;;;;;;5019913;28;20067;-50
2021/09/08 10:27:20;;;;;;;2.90;1.67;;;;;;;;;;5018510;28;20465;-53
2021/09/08 10:29:48;;;;;;;3.58;2.05;;;;;;;;;;5017959;28;20028;-49
2021/09/08 10:32:13;;;;;;;2.33;1.60;;;;;;;;;;5014461;28;20097;-52
2021/09/08 10:34:39;;;;;;;5.25;1.77;;;;;;;;;;5010762;28;20119;-51
2021/09/08 10:37:05;;;;;;;5.53;2.55;;;;;;;;;;5011773;28;20030;-52
2021/09/08 10:39:30;;;;;;;5.97;2.75;;;;;;;;;;5015348;28;20104;-49
2021/09/08 10:41:55;;;;;;;8.45;2.85;;;;;;;;;;5017212;28;20100;-48
2021/09/08 10:44:39;;;;;;;2.35;1.63;;;;;;;;;;5016828;28;20029;-48
2021/09/08 10:47:05;;;;;;;7.20;1.85;;;;;;;;;;5020395;28;20056;-51
2021/09/08 10:49:36;;;;;;;5.15;1.58;;;;;;;;;;5010751;28;20545;-49
2021/09/08 10:52:02;;;;;;;3.65;2.45;;;;;;;;;;5010239;28;20057;-40
2021/09/08 10:54:27;;;;;;;6.75;3.08;;;;;;;;;;5014175;28;20063;-41
2021/09/08 10:56:52;;;;;;;5.00;1.88;;;;;;;;;;5020927;28;20602;-41
2021/09/08 10:59:18;;;;;;;7.35;2.00;;;;;;;;;;5022238;28;20030;-40
2021/09/08 11:01:44;;;;;;;3.45;2.05;;;;;;;;;;5018117;28;20041;-45
2021/09/08 11:04:13;;;;;;;2.85;2.40;;;;;;;;;;5015393;28;20528;-45
2021/09/08 11:06:39;;;;;;;3.80;2.72;;;;;;;;;;5018454;28;20026;-44
2021/09/08 11:09:06;;;;;;;3.28;2.40;;;;;;;;;;5021324;28;20517;-42
2021/09/08 11:11:32;;;;;;;6.78;2.15;;;;;;;;;;5014408;28;20014;-42
2021/09/08 11:13:57;;;;;;;3.85;3.28;;;;;;;;;;5017005;28;20041;-39
2021/09/08 11:16:24;;;;;;;6.75;1.70;;;;;;;;;;5013160;28;20017;-40
2021/09/08 11:18:50;;;;;;;6.78;1.40;;;;;;;;;;5024224;28;20041;-43
2021/09/08 11:21:16;;;;;;;3.63;2.28;;;;;;;;;;5025291;28;20401;-42
2021/09/08 11:23:42;;;;;;;6.07;1.65;;;;;;;;;;5018705;28;20081;-41
2021/09/08 11:26:09;;;;;;;3.97;1.70;;;;;;;;;;5017696;28;20617;-40
2021/09/08 11:28:35;;;;;;;4.03;2.33;;;;;;;;;;5017898;28;20071;-39
2021/09/08 11:31:09;;;;;;;6.63;1.75;;;;;;;;;;5022045;28;20553;-39
2021/09/08 11:33:37;;;;;;;5.05;1.95;;;;;;;;;;5014982;28;20025;-39
2021/09/08 11:36:10;;;;;;;2.80;1.67;;;;;;;;;;5016513;28;20313;-39
2021/09/08 11:38:35;;;;;;;2.75;1.75;;;;;;;;;;5012058;28;20025;-40
2021/09/08 11:41:02;;;;;;;3.05;1.98;;;;;;;;;;5018600;28;20062;-38
2021/09/08 11:43:35;;;;;;;3.13;2.53;;;;;;;;;;5021256;28;20067;-39
2021/09/08 11:46:19;;;;;;;3.13;1.83;;;;;;;;;;5017400;28;20025;-39
2021/09/08 11:48:45;;;;;;;2.58;2.15;;;;;;;;;;5001989;28;20029;-38
2021/09/08 11:51:12;;;;;;;7.20;2.35;;;;;;;;;;5018403;28;20592;-40
2021/09/08 11:53:37;;;;;;;4.63;2.40;;;;;;;;;;5008019;28;20046;-39
2021/09/08 11:56:07;;;;;;;2.63;1.90;;;;;;;;;;5012085;28;20052;-39
2021/09/08 11:58:32;;;;;;;2.63;2.10;;;;;;;;;;5018836;28;20022;-39
2021/09/08 12:00:59;;;;;;;8.38;1.63;;;;;;;;;;5018738;28;20029;-40
2021/09/08 12:03:25;;;;;;;3.38;1.98;;;;;;;;;;5015399;28;20041;-40
2021/09/08 12:05:50;;;;;;;2.85;1.83;;;;;;;;;;5009495;28;20037;-40
2021/09/08 12:08:19;;;;;;;3.15;2.25;;;;;;;;;;5011546;28;20037;-40
2021/09/08 12:10:45;;;;;;;4.03;2.78;;;;;;;;;;5016486;28;20151;-40
2021/09/08 12:13:10;;;;;;;12.02;1.92;;;;;;;;;;5013017;28;20109;-40
2021/09/08 12:15:35;;;;;;;5.38;1.80;;;;;;;;;;5012385;28;20033;-41
2021/09/08 12:18:14;;;;;;;5.35;2.25;;;;;;;;;;5016531;28;20465;-40
2021/09/08 12:20:40;;;;;;;7.57;2.38;;;;;;;;;;5010705;28;20030;-43
2021/09/08 12:23:21;;;;;;;5.50;1.67;;;;;;;;;;5014607;28;20436;-40
2021/09/08 12:26:01;;;;;;;3.50;2.00;;;;;;;;;;5013355;28;20013;-45
2021/09/08 12:28:26;;;;;;;2.90;1.73;;;;;;;;;;5013496;28;20021;-43
2021/09/08 12:31:12;;;;;;;15.95;2.60;;;;;;;;;;5015797;28;20037;-42
2021/09/08 12:33:50;;;;;;;2.60;1.60;;;;;;;;;;5014235;28;20994;-41
2021/09/08 12:36:16;;;;;;;3.15;1.85;;;;;;;;;;5013656;28;20037;-42
2021/09/08 12:38:43;;;;;;;6.32;2.50;;;;;;;;;;5014350;28;20014;-41
2021/09/08 12:41:08;;;;;;;2.90;2.03;;;;;;;;;;5012521;28;20022;-44
2021/09/08 12:43:34;;;;;;;4.15;2.85;;;;;;;;;;5017271;28;20013;-43
2021/09/08 12:45:59;;;;;;;3.63;2.75;;;;;;;;;;5020586;28;20369;-43
2021/09/08 12:48:25;;;;;;;2.58;2.10;;;;;;;;;;5016682;28;20045;-45
2021/09/08 12:50:50;;;;;;;4.60;2.78;;;;;;;;;;5016996;28;20410;-43
2021/09/08 12:53:16;;;;;;;3.47;2.97;;;;;;;;;;5016398;28;20026;-44
2021/09/08 12:55:42;;;;;;;4.78;2.60;;;;;;;;;;5012794;28;20096;-43
2021/09/08 12:58:07;;;;;;;4.32;2.75;;;;;;;;;;5016604;28;20426;-44
2021/09/08 13:00:33;;;;;;;5.05;2.08;;;;;;;;;;5017556;28;20026;-43
2021/09/08 13:02:58;;;;;;;8.50;3.50;;;;;;;;;;5016745;28;20064;-43
2021/09/08 13:05:23;;;;;;;10.90;4.60;;;;;;;;;;5018887;28;20071;-44
2021/09/08 13:07:49;;;;;;;15.55;3.13;;;;;;;;;;5014215;28;20108;-42
2021/09/08 13:10:16;;;;;;;3.00;2.50;;;;;;;;;;5016055;28;20113;-44
2021/09/08 13:12:41;;;;;;;4.43;3.65;;;;;;;;;;5017676;28;20057;-42
2021/09/08 13:15:06;;;;;;;6.90;2.83;;;;;;;;;;5020045;28;20049;-43
2021/09/08 13:17:32;;;;;;;7.07;3.55;;;;;;;;;;5013030;28;20598;-44
2021/09/08 13:19:57;;;;;;;4.75;3.17;;;;;;;;;;5011401;28;20093;-44
2021/09/08 13:22:22;;;;;;;3.83;2.13;;;;;;;;;;5011353;28;20224;-45
2021/09/08 13:24:48;;;;;;;7.47;3.58;;;;;;;;;;5016137;28;20030;-46
2021/09/08 13:27:13;;;;;;;7.07;3.10;;;;;;;;;;5017018;28;20023;-47
2021/09/08 13:29:38;;;;;;;10.55;3.35;;;;;;;;;;5019719;28;20753;-40
2021/09/08 13:32:04;;;;;;;7.97;3.30;;;;;;;;;;5021420;28;20024;-42
2021/09/08 13:34:29;;;;;;;10.38;2.55;;;;;;;;;;5020408;28;20092;-45
2021/09/08 13:36:54;;;;;;;3.90;2.60;;;;;;;;;;5020078;28;20029;-43
2021/09/08 13:39:19;;;;;;;4.30;3.15;;;;;;;;;;5017524;28;21404;-43
2021/09/08 13:41:45;;;;;;;8.60;2.92;;;;;;;;;;5015382;28;20160;-42
2021/09/08 13:44:12;;;;;;;3.40;2.47;;;;;;;;;;5017138;28;20285;-43
2021/09/08 13:46:37;;;;;;;5.85;2.80;;;;;;;;;;5013371;28;20020;-47
2021/09/08 13:49:03;;;;;;;8.93;2.40;;;;;;;;;;5017063;28;20018;-42
2021/09/08 13:51:28;;;;;;;5.45;3.05;;;;;;;;;;5012562;28;20392;-39
2021/09/08 13:53:54;;;;;;;9.98;3.28;;;;;;;;;;5016799;28;20096;-39
2021/09/08 13:56:19;;;;;;;3.10;2.80;;;;;;;;;;5014846;28;20022;-39
2021/09/08 13:58:44;;;;;;;2.65;1.90;;;;;;;;;;5015573;28;20576;-40
2021/09/08 14:01:10;;;;;;;1.77;1.50;;;;;;;;;;5020993;28;20013;-40
2021/09/08 14:03:35;;;;;;;3.53;2.20;;;;;;;;;;5014891;28;20125;-40
2021/09/08 14:06:01;;;;;;;2.80;1.88;;;;;;;;;;5020025;28;20033;-38
2021/09/08 14:08:26;;;;;;;3.15;2.30;;;;;;;;;;5020670;28;20121;-39
2021/09/08 14:10:52;;;;;;;5.55;2.85;;;;;;;;;;5013938;28;20728;-40
2021/09/08 14:13:17;;;;;;;6.47;3.70;;;;;;;;;;5018080;28;20133;-38
2021/09/08 14:15:42;;;;;;;2.85;1.63;;;;;;;;;;5018430;28;20021;-39
2021/09/08 14:18:08;;;;;;;5.05;2.92;;;;;;;;;;5014578;28;20037;-38
2021/09/08 14:20:33;;;;;;;6.20;2.20;;;;;;;;;;5014160;28;20026;-39
2021/09/08 14:22:59;;;;;;;4.65;1.83;;;;;;;;;;5016183;28;20025;-39
2021/09/08 14:25:25;;;;;;;6.03;3.08;;;;;;;;;;5017778;28;20594;-39
2021/09/08 14:27:50;;;;;;;3.00;1.85;;;;;;;;;;5013847;28;20618;-38
2021/09/08 14:30:16;;;;;;;7.18;5.18;;;;;;;;;;5013369;28;20121;-38
2021/09/08 14:32:41;;;;;;;2.42;2.15;;;;;;;;;;5012934;28;20018;-39